Oscoda, MI

9:16 AM EDT on June 23, 2017 (GMT -0400)
Oscoda-Wurtsmith

Weather History for KOSC - March, 2014

Change the Weather History Date:

Saturday, March 15, 2014

  Actual Average Record
Temperature  
Mean Temperature 26 °F -  
Max Temperature 37 °F 35 °F 71 °F (2012)
Min Temperature 14 °F 19 °F 6 °F (2005)
Degree Days  
Heating Degree Days 40    
Moisture  
Dew Point 15 °F    
Average Humidity 59    
Maximum Humidity 81    
Minimum Humidity 43    
Precipitation  
Precipitation 0.00 in - - ()
Sea Level Pressure  
Sea Level Pressure 29.94 in    
Wind  
Wind Speed 14 mph (NW)    
Max Wind Speed 23 mph    
Max Gust Speed 33 mph    
Visibility 10 miles    
Events      
Averages and records for this station are not official NWS values.
T = Trace of Precipitation, MM = Missing Value Source: NWS Daily Summary

Daily Weather History Graph

Daily Weather History Graph

Search for Another Location

Airport or City:

Trip Planner

Search our weather history database for the weather conditions in past years. The results will help you decide how hot, cold, wet, or windy it might be!

Date:

Astronomy

Mar. 15, 2014 Rise Set
Actual Time 7:45 AM EDT 7:39 PM EDT
Civil Twilight 7:16 AM EDT 8:08 PM EDT
Nautical Twilight 6:43 AM EDT 8:42 PM EDT
Astronomical Twilight 6:08 AM EDT 9:17 PM EDT
Moon 6:57 PM EDT (3/15) 6:58 AM EDT (3/15)
Length of Visible Light 12h 51m
Length of Day
11h 53m
Waxing Gibbous, 99% of the Moon is Illuminated
Mar 15
Waxing Gibbous
Mar 16
Full
Mar 23
Last Quarter
Mar 30
New
Apr 7
First Quarter

Hourly Weather History & Observations

Time (EDT) Temp. Windchill Dew Point Humidity Pressure Visibility Wind Dir Wind Speed Gust Speed Precip Events Conditions
12:14 AM 37.6 °F 30.0 °F 32.0 °F 80% 29.57 in 10.0 mi West 11.5 mph 17.3 mph N/A   Overcast
12:34 AM 37.4 °F 29.8 °F 32.0 °F 81% 29.57 in 10.0 mi West 11.5 mph - N/A   Overcast
12:54 AM 37.4 °F 29.8 °F 31.8 °F 80% 29.58 in 10.0 mi West 11.5 mph 20.7 mph N/A   Overcast
1:14 AM 37.2 °F 30.6 °F 31.5 °F 80% 29.58 in 10.0 mi West 9.2 mph - N/A   Overcast
1:34 AM 36.7 °F 29.4 °F 31.5 °F 81% 29.59 in 10.0 mi West 10.4 mph - N/A   Overcast
1:54 AM 36.7 °F 29.4 °F 31.3 °F 81% 29.60 in 10.0 mi West 10.4 mph - N/A   Overcast
2:14 AM 36.7 °F 28.0 °F 31.1 °F 80% 29.61 in 10.0 mi West 13.8 mph - N/A   Overcast
2:34 AM 36.7 °F 28.9 °F 30.7 °F 79% 29.61 in 10.0 mi West 11.5 mph - N/A   Overcast
2:54 AM 36.5 °F 30.3 °F 30.6 °F 79% 29.62 in 10.0 mi West 8.1 mph - N/A   Overcast
3:14 AM 36.1 °F 28.2 °F 30.2 °F 79% 29.63 in 10.0 mi West 11.5 mph 16.1 mph N/A   Overcast
3:34 AM 36.0 °F 28.0 °F 29.8 °F 78% 29.63 in 10.0 mi West 11.5 mph - N/A   Overcast
3:53 AM 35.8 °F 26.9 °F 29.5 °F 78% 29.63 in 10.0 mi West 13.8 mph 19.6 mph N/A   Overcast
4:14 AM 35.6 °F 25.5 °F 28.6 °F 76% 29.64 in 10.0 mi WNW 17.3 mph 23.0 mph N/A   Overcast
4:34 AM 34.9 °F 24.6 °F 26.1 °F 70% 29.65 in 10.0 mi WNW 17.3 mph 29.9 mph N/A   Mostly Cloudy
4:54 AM 33.8 °F 21.9 °F 24.6 °F 69% 29.66 in 10.0 mi WNW 21.9 mph 25.3 mph N/A   Mostly Cloudy
5:14 AM 33.1 °F 22.6 °F 24.8 °F 72% 29.68 in 10.0 mi WNW 16.1 mph 21.9 mph N/A   Overcast
5:34 AM 32.4 °F 23.0 °F 24.3 °F 72% 29.69 in 10.0 mi WNW 12.7 mph 20.7 mph N/A   Overcast
5:54 AM 32.0 °F 22.5 °F 23.7 °F 71% 29.71 in 10.0 mi WNW 12.7 mph - N/A   Overcast
6:14 AM 31.8 °F 22.3 °F 23.5 °F 71% 29.73 in 10.0 mi WNW 12.7 mph 23.0 mph N/A   Overcast
6:34 AM 31.1 °F 20.9 °F 23.5 °F 74% 29.74 in 10.0 mi WNW 13.8 mph 24.2 mph N/A   Overcast
6:53 AM 30.9 °F 19.4 °F 23.5 °F 74% 29.75 in 10.0 mi WNW 17.3 mph 21.9 mph N/A   Overcast
7:14 AM 30.2 °F 20.8 °F 23.4 °F 76% 29.77 in 10.0 mi NW 11.5 mph 20.7 mph N/A   Overcast
7:34 AM 29.5 °F 18.0 °F 18.9 °F 65% 29.80 in 10.0 mi NW 16.1 mph 31.1 mph N/A   Mostly Cloudy
7:53 AM 28.4 °F 15.8 °F 16.5 °F 61% 29.81 in 10.0 mi NW 18.4 mph 29.9 mph N/A   Mostly Cloudy
8:14 AM 27.3 °F 14.8 °F 15.4 °F 61% 29.84 in 10.0 mi NW 17.3 mph 27.6 mph N/A   Scattered Clouds
8:34 AM 28.2 °F 16.8 °F 16.7 °F 62% 29.85 in 10.0 mi NW 15.0 mph 19.6 mph N/A   Mostly Cloudy
8:53 AM 28.2 °F 14.5 °F 14.7 °F 57% 29.86 in 10.0 mi NW 21.9 mph 29.9 mph N/A   Mostly Cloudy
9:14 AM 27.3 °F 15.2 °F 14.7 °F 59% 29.88 in 10.0 mi NW 16.1 mph 23.0 mph N/A   Scattered Clouds
9:34 AM 26.6 °F 12.0 °F 12.7 °F 56% 29.89 in 10.0 mi NNW 23.0 mph 32.2 mph N/A   Scattered Clouds
9:53 AM 26.4 °F 14.5 °F 12.9 °F 57% 29.91 in 10.0 mi NW 15.0 mph 25.3 mph N/A   Clear
10:14 AM 26.6 °F 12.0 °F 11.7 °F 53% 29.92 in 10.0 mi NW 23.0 mph 27.6 mph N/A   Clear
10:34 AM 26.8 °F 12.3 °F 10.8 °F 51% 29.93 in 10.0 mi NNW 23.0 mph 32.2 mph N/A   Clear
10:53 AM 27.9 °F 17.8 °F 12.9 °F 54% 29.94 in 10.0 mi NW 11.5 mph 21.9 mph N/A   Scattered Clouds
11:14 AM 28.2 °F 14.8 °F 12.4 °F 52% 29.95 in 10.0 mi NW 20.7 mph 24.2 mph N/A   Mostly Cloudy
11:34 AM 27.9 °F 15.5 °F 11.1 °F 50% 29.96 in 10.0 mi NNW 17.3 mph - N/A   Scattered Clouds
11:53 AM 28.0 °F 16.1 °F 12.0 °F 51% 29.97 in 10.0 mi NNW 16.1 mph 23.0 mph N/A   Clear
12:14 PM 28.4 °F 18.0 °F 11.8 °F 50% 29.98 in 10.0 mi NW 12.7 mph 24.2 mph N/A   Scattered Clouds
12:34 PM 28.4 °F 17.5 °F 11.5 °F 49% 29.98 in 10.0 mi NW 13.8 mph 24.2 mph N/A   Scattered Clouds
12:53 PM 29.5 °F 17.6 °F 12.6 °F 49% 30.00 in 10.0 mi NW 17.3 mph 27.6 mph N/A   Mostly Cloudy
1:14 PM 29.5 °F 18.4 °F 12.6 °F 49% 30.01 in 10.0 mi NW 15.0 mph 24.2 mph N/A   Mostly Cloudy
1:34 PM 29.1 °F 17.9 °F 11.5 °F 48% 30.02 in 10.0 mi NW 15.0 mph 23.0 mph N/A   Mostly Cloudy
1:54 PM 28.8 °F 18.4 °F 11.1 °F 48% 30.02 in 10.0 mi NNW 12.7 mph 23.0 mph N/A   Mostly Cloudy
2:14 PM 28.4 °F 18.5 °F 11.3 °F 49% 30.03 in 10.0 mi NW 11.5 mph 20.7 mph N/A   Mostly Cloudy
2:34 PM 29.8 °F 19.3 °F 11.1 °F 46% 30.04 in 10.0 mi WNW 13.8 mph 33.4 mph N/A   Mostly Cloudy
2:54 PM 30.2 °F 19.3 °F 11.3 °F 45% 30.05 in 10.0 mi West 15.0 mph 25.3 mph N/A   Mostly Cloudy
3:14 PM 29.8 °F 18.9 °F 10.6 °F 45% 30.06 in 10.0 mi WNW 15.0 mph 20.7 mph N/A   Scattered Clouds
3:34 PM 29.3 °F 17.7 °F 9.3 °F 43% 30.06 in 10.0 mi West 16.1 mph 23.0 mph N/A   Scattered Clouds
3:54 PM 28.9 °F 17.3 °F 9.1 °F 43% 30.07 in 10.0 mi WNW 16.1 mph 23.0 mph N/A   Scattered Clouds
4:14 PM 28.8 °F 17.9 °F 9.0 °F 43% 30.08 in 10.0 mi WNW 13.8 mph 20.7 mph N/A   Scattered Clouds
4:34 PM 28.9 °F 17.7 °F 10.0 °F 45% 30.09 in 10.0 mi WNW 15.0 mph 21.9 mph N/A   Mostly Cloudy
4:54 PM 28.6 °F 17.7 °F 9.1 °F 44% 30.10 in 10.0 mi West 13.8 mph 23.0 mph N/A   Scattered Clouds
5:14 PM 28.2 °F 15.5 °F 9.1 °F 45% 30.11 in 10.0 mi West 18.4 mph 21.9 mph N/A   Clear
5:33 PM 27.5 °F 15.4 °F 8.4 °F 45% 30.11 in 10.0 mi WNW 16.1 mph - N/A   Clear
5:54 PM 26.8 °F 14.9 °F 7.7 °F 45% 30.13 in 10.0 mi WNW 15.0 mph 20.7 mph N/A   Clear
6:14 PM 26.2 °F 14.2 °F 7.0 °F 44% 30.14 in 10.0 mi WNW 15.0 mph 23.0 mph N/A   Clear
6:33 PM 25.7 °F 15.1 °F 7.3 °F 46% 30.15 in 10.0 mi WNW 11.5 mph - N/A   Scattered Clouds
6:54 PM 24.6 °F 12.7 °F 6.6 °F 46% 30.17 in 10.0 mi NNW 13.8 mph 19.6 mph N/A   Scattered Clouds
7:14 PM 23.7 °F 11.0 °F 7.7 °F 51% 30.18 in 10.0 mi NNW 15.0 mph 18.4 mph N/A   Scattered Clouds
7:33 PM 22.1 °F 8.9 °F 6.4 °F 51% 30.20 in 10.0 mi NW 15.0 mph 18.4 mph N/A   Scattered Clouds
7:54 PM 21.2 °F 7.8 °F 5.9 °F 52% 30.21 in 10.0 mi NW 15.0 mph 23.0 mph N/A   Clear
8:14 PM 20.3 °F 6.6 °F 5.4 °F 52% 30.23 in 10.0 mi NW 15.0 mph 23.0 mph N/A   Clear
8:33 PM 19.4 °F 6.0 °F 5.5 °F 55% 30.23 in 10.0 mi NW 13.8 mph 21.9 mph N/A   Clear
8:54 PM 18.9 °F 7.2 °F 5.2 °F 55% 30.24 in 10.0 mi WNW 10.4 mph - N/A   Clear
9:14 PM 18.5 °F 6.8 °F 5.4 °F 57% 30.24 in 10.0 mi NW 10.4 mph - N/A   Mostly Cloudy
9:33 PM 18.5 °F 6.1 °F 5.9 °F 58% 30.25 in 10.0 mi NW 11.5 mph - N/A   Overcast
9:54 PM 18.0 °F 4.2 °F 4.1 °F 55% 30.26 in 10.0 mi North 13.8 mph 18.4 mph N/A   Scattered Clouds
10:14 PM 17.2 °F 3.3 °F 3.7 °F 56% 30.27 in 10.0 mi NNW 13.8 mph 17.3 mph N/A   Clear
10:33 PM 16.7 °F 2.6 °F 3.2 °F 55% 30.27 in 10.0 mi NNW 13.8 mph 19.6 mph N/A   Clear
10:54 PM 16.2 °F 1.9 °F 3.4 °F 57% 30.28 in 10.0 mi NNW 13.8 mph 21.9 mph N/A   Clear
11:14 PM 15.6 °F 3.2 °F 3.9 °F 60% 30.29 in 10.0 mi NNW 10.4 mph - N/A   Clear
11:33 PM 14.7 °F 0.7 °F 3.0 °F 60% 30.30 in 10.0 mi NNW 12.7 mph 19.6 mph N/A   Clear
11:54 PM 14.0 °F -1.4 °F 1.9 °F 59% 30.31 in 10.0 mi NNW 15.0 mph 20.7 mph N/A   Clear